Time;durP1;ratioP1;P1;durP2;ratioP2;P2;SDS_P1;SDS_P2;PMS_P1;PMS_P2;Temp;Humidity;BMP_temperature;BMP_pressure;BME280_temperature;BME280_humidity;BME280_pressure;Samples;Min_cycle;Max_cycle;Signal;HPM_P1;HPM_P2
2022/04/29 00:00:51;;;;;;;19.98;7.65;;;12.70;99.90;;;;;;5035435;28;20211;-83
2022/04/29 00:03:17;;;;;;;16.30;7.68;;;12.40;99.90;;;;;;5034597;28;20183;-78
2022/04/29 00:05:46;;;;;;;10.98;8.18;;;12.40;99.90;;;;;;5037566;28;20238;-75
2022/04/29 00:08:12;;;;;;;13.50;8.68;;;12.50;99.90;;;;;;5033328;28;20224;-82
2022/04/29 00:10:39;;;;;;;25.95;9.65;;;12.20;99.90;;;;;;5037441;28;20187;-81
2022/04/29 00:13:07;;;;;;;10.15;8.77;;;12.20;99.90;;;;;;5035581;28;20232;-84
2022/04/29 00:15:32;;;;;;;16.52;8.95;;;12.30;99.90;;;;;;5034701;28;20227;-77
2022/04/29 00:17:58;;;;;;;15.98;8.73;;;12.40;99.90;;;;;;5037039;28;20160;-79
2022/04/29 00:20:24;;;;;;;19.38;8.45;;;12.40;99.90;;;;;;5026096;28;20184;-78
2022/04/29 00:22:50;;;;;;;18.25;8.75;;;12.40;99.90;;;;;;5026446;28;20169;-79
2022/04/29 00:25:15;;;;;;;12.48;9.60;;;12.40;99.90;;;;;;5017010;28;20227;-86
2022/04/29 00:27:42;;;;;;;15.70;8.80;;;12.50;99.90;;;;;;5030426;28;20168;-82
2022/04/29 00:30:09;;;;;;;18.73;9.40;;;12.50;99.90;;;;;;5015118;28;20645;-81
2022/04/29 00:32:36;;;;;;;16.70;8.93;;;12.50;99.90;;;;;;5015261;28;20207;-83
2022/04/29 00:35:02;;;;;;;20.45;8.93;;;12.50;99.90;;;;;;5013933;28;20177;-87
2022/04/29 00:37:27;;;;;;;25.75;9.57;;;12.60;99.90;;;;;;5015328;28;20218;-85
2022/04/29 00:39:53;;;;;;;13.50;8.98;;;12.40;99.90;;;;;;5014962;28;20164;-82
2022/04/29 00:42:24;;;;;;;16.15;9.13;;;12.50;99.90;;;;;;5015512;28;20164;-88
2022/04/29 00:44:50;;;;;;;12.38;8.40;;;12.50;99.90;;;;;;5014168;28;20303;-83
2022/04/29 00:47:18;;;;;;;14.02;8.50;;;12.40;99.90;;;;;;5014132;28;20196;-80
2022/04/29 00:49:44;;;;;;;11.57;8.15;;;12.10;99.90;;;;;;5014271;28;20171;-87
2022/04/29 00:52:13;;;;;;;15.50;8.77;;;12.30;99.90;;;;;;5013969;28;20185;-85
2022/04/29 00:54:43;;;;;;;20.35;9.18;;;12.30;99.90;;;;;;5013867;28;20196;-81
2022/04/29 00:57:14;;;;;;;14.60;8.88;;;12.30;99.90;;;;;;5014421;28;20169;-88
2022/04/29 01:00:19;;;;;;;15.30;8.60;;;12.30;99.90;;;;;;5014278;28;20161;-84
2022/04/29 01:02:50;;;;;;;16.20;9.30;;;12.30;99.90;;;;;;4985408;28;20181;-85
2022/04/29 01:05:23;;;;;;;21.42;8.88;;;12.40;99.90;;;;;;4983464;28;20304;-77
2022/04/29 01:07:50;;;;;;;12.00;9.32;;;12.10;99.90;;;;;;5004341;28;20196;-87
2022/04/29 01:10:20;;;;;;;10.18;8.60;;;12.10;99.90;;;;;;5015921;28;20172;-89
2022/04/29 01:12:58;;;;;;;15.50;8.95;;;12.20;99.90;;;;;;5014048;28;20172;-83
2022/04/29 01:15:25;;;;;;;14.07;9.18;;;12.30;99.90;;;;;;5014075;28;20188;-87
2022/04/29 01:17:55;;;;;;;14.65;9.38;;;12.10;99.90;;;;;;5014088;28;20172;-90
2022/04/29 01:20:25;;;;;;;14.68;8.93;;;12.20;99.90;;;;;;5014261;28;20153;-87
2022/04/29 01:22:51;;;;;;;13.00;9.68;;;12.20;99.90;;;;;;5029356;28;20175;-88
2022/04/29 01:25:16;;;;;;;25.02;9.80;;;12.40;99.90;;;;;;5013950;28;20677;-84
2022/04/29 01:27:42;;;;;;;15.57;9.68;;;12.20;99.90;;;;;;5013622;28;20200;-87
2022/04/29 01:30:11;;;;;;;13.68;10.52;;;12.00;99.90;;;;;;5013760;28;20251;-84
2022/04/29 01:32:39;;;;;;;24.95;11.48;;;12.10;99.90;;;;;;5028858;28;20645;-84
2022/04/29 01:35:06;;;;;;;10.57;9.40;;;12.10;99.90;;;;;;5013259;28;20684;-81
2022/04/29 01:37:32;;;;;;;16.85;9.55;;;12.20;99.90;;;;;;5013705;28;20230;-91
2022/04/29 01:39:58;;;;;;;23.17;10.65;;;12.00;99.90;;;;;;5013695;28;20267;-88
2022/04/29 01:42:24;;;;;;;16.13;9.70;;;12.20;99.90;;;;;;5013747;28;20175;-88
2022/04/29 01:44:49;;;;;;;25.65;11.02;;;12.30;99.90;;;;;;5013596;28;20282;-87
2022/04/29 01:47:15;;;;;;;15.38;10.05;;;12.30;99.90;;;;;;5032930;28;20181;-87
2022/04/29 01:49:41;;;;;;;17.55;10.07;;;12.10;99.90;;;;;;5017391;28;20180;-89
2022/04/29 01:52:08;;;;;;;28.33;10.55;;;12.00;99.90;;;;;;5017613;28;20169;-90
2022/04/29 01:54:35;;;;;;;15.43;10.38;;;12.10;99.90;;;;;;5017835;28;20180;-83
2022/04/29 01:57:01;;;;;;;23.00;10.77;;;12.00;99.90;;;;;;5017671;28;20226;-90
2022/04/29 01:59:29;;;;;;;19.13;10.90;;;11.80;99.90;;;;;;5023801;28;20227;-89
2022/04/29 02:01:56;;;;;;;13.00;10.90;;;11.60;99.90;;;;;;5029336;28;20195;-78
2022/04/29 02:04:22;;;;;;;15.52;10.55;;;11.80;99.90;;;;;;5030308;28;20208;-79
2022/04/29 02:06:47;;;;;;;13.68;10.70;;;11.80;99.90;;;;;;5032089;28;20663;-79
2022/04/29 02:09:13;;;;;;;26.13;11.45;;;11.60;99.90;;;;;;5027817;28;20188;-77
2022/04/29 02:11:38;;;;;;;18.67;10.77;;;11.70;99.90;;;;;;5027040;28;20161;-77
2022/04/29 02:14:04;;;;;;;25.35;11.27;;;12.00;99.90;;;;;;5026603;28;20165;-80
2022/04/29 02:16:30;;;;;;;14.82;10.80;;;11.90;99.90;;;;;;5026361;28;20191;-78
2022/04/29 02:18:55;;;;;;;20.90;9.93;;;11.70;99.90;;;;;;5026446;28;20613;-81
2022/04/29 02:21:21;;;;;;;17.52;11.80;;;11.40;99.90;;;;;;5026772;28;20168;-80
2022/04/29 02:23:47;;;;;;;18.98;12.23;;;11.60;99.90;;;;;;5026386;28;20228;-76
2022/04/29 02:26:13;;;;;;;13.32;10.20;;;11.80;99.90;;;;;;5024287;28;20284;-83
2022/04/29 02:28:39;;;;;;;15.88;11.55;;;11.80;99.90;;;;;;5017051;28;20164;-80
2022/04/29 02:31:04;;;;;;;16.80;10.75;;;11.30;99.90;;;;;;5016706;28;20180;-80
2022/04/29 02:33:30;;;;;;;19.65;11.30;;;11.20;99.90;;;;;;5017321;28;20169;-89
2022/04/29 02:35:56;;;;;;;16.42;9.77;;;11.40;99.90;;;;;;5016233;28;20596;-83
2022/04/29 02:38:22;;;;;;;17.58;11.43;;;11.50;99.90;;;;;;5016619;28;20180;-82
2022/04/29 02:40:50;;;;;;;18.65;11.77;;;11.50;99.90;;;;;;5016598;28;20168;-82
2022/04/29 02:43:17;;;;;;;17.23;11.27;;;11.70;99.90;;;;;;5016629;28;20173;-83
2022/04/29 02:45:43;;;;;;;17.13;10.73;;;11.80;99.90;;;;;;5015808;28;20212;-86
2022/04/29 02:48:09;;;;;;;17.00;11.02;;;11.70;99.90;;;;;;5031589;28;20176;-82
2022/04/29 02:50:36;;;;;;;20.73;11.02;;;11.50;99.90;;;;;;5016346;28;20572;-79
2022/04/29 02:53:02;;;;;;;23.48;11.32;;;11.50;99.90;;;;;;5016919;28;20172;-85
2022/04/29 02:55:27;;;;;;;21.48;12.02;;;11.40;99.90;;;;;;5016188;28;20541;-85
2022/04/29 02:57:53;;;;;;;19.70;11.38;;;11.30;99.90;;;;;;5013753;28;20175;-85
2022/04/29 03:00:19;;;;;;;17.63;11.38;;;11.50;99.90;;;;;;5015729;28;20195;-88
2022/04/29 03:02:44;;;;;;;15.57;11.38;;;11.50;99.90;;;;;;5016222;28;20187;-81
2022/04/29 03:05:10;;;;;;;19.83;11.57;;;11.60;99.90;;;;;;5015644;28;20216;-82
2022/04/29 03:07:36;;;;;;;12.98;10.82;;;11.60;99.90;;;;;;5015916;28;20223;-85
2022/04/29 03:10:02;;;;;;;13.98;11.23;;;11.50;99.90;;;;;;5015777;28;20183;-84
2022/04/29 03:12:27;;;;;;;11.02;9.75;;;11.50;99.90;;;;;;5016000;28;20192;-79
2022/04/29 03:14:53;;;;;;;24.60;10.73;;;11.40;99.90;;;;;;5015844;28;20188;-85
2022/04/29 03:20:04;;;;;;;20.52;12.68;;;11.40;99.90;;;;;;5015788;28;20223;-83
2022/04/29 03:22:30;;;;;;;14.82;11.40;;;11.30;99.90;;;;;;5015835;28;20169;-90
2022/04/29 03:24:55;;;;;;;12.07;10.00;;;11.30;99.90;;;;;;5031264;28;20366;-85
2022/04/29 03:27:21;;;;;;;22.95;11.20;;;11.20;99.90;;;;;;5015458;28;20164;-88
2022/04/29 03:29:47;;;;;;;27.15;10.23;;;11.10;99.90;;;;;;5014242;28;20189;-84
2022/04/29 03:32:13;;;;;;;16.80;10.90;;;11.30;99.90;;;;;;5015684;28;20187;-78
2022/04/29 03:34:39;;;;;;;17.45;10.75;;;11.10;99.90;;;;;;5030543;28;20243;-80
2022/04/29 03:37:05;;;;;;;24.38;10.85;;;11.10;99.90;;;;;;5015615;28;20168;-83
2022/04/29 03:39:31;;;;;;;16.75;10.02;;;11.30;99.90;;;;;;5016030;28;20171;-86
2022/04/29 03:41:56;;;;;;;20.58;11.88;;;11.50;99.90;;;;;;5015153;28;20175;-83
2022/04/29 03:44:22;;;;;;;19.25;11.13;;;11.50;99.90;;;;;;5014988;28;20184;-80
2022/04/29 03:46:48;;;;;;;14.68;10.63;;;11.60;99.90;;;;;;5015142;28;20187;-82
2022/04/29 03:51:58;;;;;;;14.82;9.93;;;11.70;99.90;;;;;;5015194;28;20589;-84
2022/04/29 03:54:23;;;;;;;21.30;11.52;;;11.80;99.90;;;;;;5014599;28;20181;-85
2022/04/29 03:56:49;;;;;;;15.43;11.13;;;11.60;99.90;;;;;;5014982;28;20222;-89
2022/04/29 03:59:15;;;;;;;18.88;9.82;;;11.40;99.90;;;;;;5015147;28;20165;-83
2022/04/29 04:01:42;;;;;;;20.70;10.70;;;11.40;99.90;;;;;;5014676;28;20256;-86
2022/04/29 04:04:07;;;;;;;19.35;10.77;;;11.40;99.90;;;;;;5015010;28;20215;-80
2022/04/29 04:06:52;;;;;;;19.33;10.27;;;11.30;99.90;;;;;;5014925;28;20593;-84
2022/04/29 04:09:20;;;;;;;13.98;10.77;;;11.00;99.90;;;;;;5014402;28;20180;-81
2022/04/29 04:11:46;;;;;;;13.52;9.98;;;11.10;99.90;;;;;;5014619;28;20169;-81
2022/04/29 04:14:12;;;;;;;27.40;10.95;;;11.20;99.90;;;;;;5014931;28;20173;-83
2022/04/29 04:16:38;;;;;;;15.85;10.15;;;11.00;99.90;;;;;;5014269;28;20784;-80
2022/04/29 04:19:04;;;;;;;19.73;10.57;;;11.00;99.90;;;;;;5014727;28;20247;-88
2022/04/29 04:21:30;;;;;;;18.67;10.23;;;11.20;99.90;;;;;;5014582;28;20683;-85
2022/04/29 04:23:55;;;;;;;17.45;10.38;;;11.20;99.90;;;;;;5014495;28;20204;-84
2022/04/29 04:26:22;;;;;;;17.83;10.15;;;11.00;99.90;;;;;;5014242;28;20294;-82
2022/04/29 04:28:47;;;;;;;16.52;9.98;;;11.10;99.90;;;;;;5019836;28;20172;-82
2022/04/29 04:31:13;;;;;;;19.08;10.60;;;11.00;99.90;;;;;;5024886;28;20191;-81
2022/04/29 04:33:40;;;;;;;20.73;10.32;;;11.10;99.90;;;;;;5021813;28;20196;-77
2022/04/29 04:36:06;;;;;;;14.27;10.60;;;11.10;99.90;;;;;;5021663;28;20184;-88
2022/04/29 04:38:32;;;;;;;16.05;11.13;;;11.10;99.90;;;;;;5015653;28;20169;-85
2022/04/29 04:40:58;;;;;;;19.55;10.18;;;11.20;99.90;;;;;;5014072;28;20552;-81
2022/04/29 04:43:27;;;;;;;19.20;9.52;;;11.10;99.90;;;;;;5013861;28;20164;-80
2022/04/29 04:45:53;;;;;;;16.13;9.98;;;11.00;99.90;;;;;;5013905;28;20215;-82
2022/04/29 04:48:19;;;;;;;18.00;10.35;;;11.00;99.90;;;;;;5013826;28;20255;-82
2022/04/29 04:50:45;;;;;;;23.02;10.48;;;11.00;99.90;;;;;;5013746;28;20530;-82
2022/04/29 04:53:11;;;;;;;22.35;10.27;;;11.10;99.90;;;;;;5013768;28;20168;-82
2022/04/29 04:55:38;;;;;;;23.00;10.57;;;11.20;99.90;;;;;;5014249;28;20193;-82
2022/04/29 04:58:04;;;;;;;15.77;10.18;;;11.20;99.90;;;;;;5013745;28;20175;-85
2022/04/29 05:00:30;;;;;;;12.18;9.77;;;11.20;99.90;;;;;;5013995;28;20267;-86
2022/04/29 05:02:55;;;;;;;25.10;11.77;;;11.20;99.90;;;;;;5014062;28;20262;-83
2022/04/29 05:05:21;;;;;;;27.27;10.45;;;11.10;99.90;;;;;;5029309;28;20211;-80
2022/04/29 05:07:47;;;;;;;41.55;13.25;;;11.30;99.90;;;;;;5014122;28;20183;-80
2022/04/29 05:10:13;;;;;;;18.63;11.43;;;11.30;99.90;;;;;;5014063;28;20196;-78
2022/04/29 05:12:44;;;;;;;20.42;10.13;;;11.10;99.90;;;;;;5029211;28;20230;-84
2022/04/29 05:15:11;;;;;;;24.80;10.32;;;11.20;99.90;;;;;;5013714;28;20177;-84
2022/04/29 05:17:40;;;;;;;11.70;10.25;;;11.20;99.90;;;;;;5013989;28;20161;-88
2022/04/29 05:20:11;;;;;;;16.80;9.52;;;11.20;99.90;;;;;;5013184;28;20172;-87
2022/04/29 05:22:36;;;;;;;23.02;9.90;;;11.10;99.90;;;;;;5028791;28;20176;-80
2022/04/29 05:25:03;;;;;;;16.58;10.88;;;11.00;99.90;;;;;;5013526;28;20259;-82
2022/04/29 05:27:29;;;;;;;24.48;9.88;;;11.00;99.90;;;;;;5015309;28;20176;-80
2022/04/29 05:29:55;;;;;;;26.73;10.63;;;11.10;99.90;;;;;;5013528;28;20825;-86
2022/04/29 05:32:22;;;;;;;31.13;10.13;;;11.20;99.90;;;;;;5029246;28;20168;-84
2022/04/29 05:34:48;;;;;;;16.98;9.68;;;11.20;99.90;;;;;;5014016;28;20526;-82
2022/04/29 05:37:13;;;;;;;12.13;9.60;;;11.20;99.90;;;;;;5013547;28;20240;-80
2022/04/29 05:42:24;;;;;;;17.05;10.43;;;11.10;99.90;;;;;;5013609;28;20644;-83
2022/04/29 05:44:50;;;;;;;16.52;10.10;;;10.90;99.90;;;;;;5014764;28;20685;-81
2022/04/29 05:47:16;;;;;;;15.85;9.15;;;10.70;99.90;;;;;;5013420;28;20171;-78
2022/04/29 05:49:42;;;;;;;28.20;11.23;;;10.80;99.90;;;;;;5014238;28;20592;-84
2022/04/29 05:52:09;;;;;;;19.75;8.90;;;11.00;99.90;;;;;;5014422;28;20164;-79
2022/04/29 05:54:35;;;;;;;12.98;9.07;;;11.20;99.90;;;;;;5014419;28;20238;-80
2022/04/29 05:57:02;;;;;;;32.03;10.93;;;11.40;99.90;;;;;;5013897;28;20689;-80
2022/04/29 05:59:29;;;;;;;14.13;10.57;;;11.30;99.90;;;;;;5013647;28;20246;-78
2022/04/29 06:01:55;;;;;;;17.67;9.32;;;11.40;99.90;;;;;;5012486;28;20176;-80
2022/04/29 06:04:22;;;;;;;24.00;9.20;;;11.60;99.90;;;;;;5013152;28;20561;-85
2022/04/29 06:06:48;;;;;;;26.05;10.15;;;11.60;99.90;;;;;;5013348;28;20502;-86
2022/04/29 06:09:14;;;;;;;17.17;9.98;;;11.60;99.90;;;;;;5013679;28;20271;-82
2022/04/29 06:11:39;;;;;;;22.45;8.95;;;11.70;99.90;;;;;;5013960;28;20176;-85
2022/04/29 06:14:05;;;;;;;18.23;9.63;;;11.80;99.90;;;;;;5012982;28;20164;-81
2022/04/29 06:16:31;;;;;;;19.80;9.38;;;12.00;99.90;;;;;;5013229;28;20518;-84
2022/04/29 06:18:57;;;;;;;33.22;9.80;;;12.20;99.90;;;;;;5011949;28;20169;-82
2022/04/29 06:21:22;;;;;;;32.60;9.07;;;12.00;99.90;;;;;;5011826;28;20637;-83
2022/04/29 06:23:49;;;;;;;20.90;9.90;;;12.00;99.90;;;;;;5013200;28;20226;-83
2022/04/29 06:26:15;;;;;;;26.90;10.50;;;12.10;99.90;;;;;;5012838;28;20216;-80
2022/04/29 06:28:41;;;;;;;20.25;9.18;;;12.30;99.90;;;;;;5013511;28;20204;-86
2022/04/29 06:31:07;;;;;;;25.08;9.65;;;12.50;99.90;;;;;;5021685;28;20175;-85
2022/04/29 06:33:34;;;;;;;26.38;10.82;;;12.50;99.90;;;;;;5040233;28;20518;-89
2022/04/29 06:36:01;;;;;;;20.13;9.18;;;12.40;99.90;;;;;;5052452;28;20247;-85
2022/04/29 06:38:27;;;;;;;23.40;9.82;;;12.60;99.90;;;;;;5036945;28;20234;-93
2022/04/29 06:40:55;;;;;;;22.20;9.70;;;12.70;99.90;;;;;;5037325;28;20201;-85
2022/04/29 06:43:22;;;;;;;19.15;10.32;;;12.70;99.90;;;;;;5038236;28;20163;-86
2022/04/29 06:45:48;;;;;;;19.80;9.75;;;12.40;99.90;;;;;;5036734;28;20361;-93
2022/04/29 06:48:14;;;;;;;20.02;10.02;;;12.30;99.90;;;;;;5036627;28;20191;-85
2022/04/29 06:50:40;;;;;;;35.55;10.13;;;12.30;99.90;;;;;;5034706;28;20179;-86
2022/04/29 06:53:06;;;;;;;20.00;10.15;;;12.00;99.90;;;;;;5036739;28;20251;-83
2022/04/29 06:55:35;;;;;;;22.27;10.73;;;12.10;99.90;;;;;;5035870;28;20184;-82
2022/04/29 06:58:02;;;;;;;23.80;11.15;;;12.40;99.90;;;;;;5036369;28;20159;-85
2022/04/29 07:00:28;;;;;;;23.42;10.35;;;12.60;99.90;;;;;;5036311;28;20187;-80
2022/04/29 07:02:56;;;;;;;9.65;8.07;;;12.50;99.90;;;;;;5036260;28;20179;-88
2022/04/29 07:05:23;;;;;;;14.73;9.38;;;12.50;99.90;;;;;;5035538;28;20608;-87
2022/04/29 07:07:49;;;;;;;14.90;9.70;;;12.50;99.90;;;;;;5038612;28;20184;-88
2022/04/29 07:10:16;;;;;;;17.85;8.80;;;12.60;99.90;;;;;;5038573;28;20624;-83
2022/04/29 07:12:46;;;;;;;23.58;9.32;;;12.60;99.90;;;;;;5036403;28;20172;-84
2022/04/29 07:15:14;;;;;;;19.75;9.20;;;12.60;99.90;;;;;;5045903;28;20192;-82
2022/04/29 07:17:44;;;;;;;16.98;9.80;;;12.60;99.90;;;;;;5016376;28;20204;-88
2022/04/29 07:20:11;;;;;;;21.00;9.90;;;12.70;99.90;;;;;;5015935;28;20172;-84
2022/04/29 07:22:38;;;;;;;21.17;9.82;;;12.60;99.90;;;;;;5015952;28;20169;-81
2022/04/29 07:25:06;;;;;;;33.10;12.38;;;12.60;99.90;;;;;;5016528;28;20200;-85
2022/04/29 07:27:32;;;;;;;11.75;9.13;;;12.80;99.90;;;;;;5031491;28;20215;-84
2022/04/29 07:29:59;;;;;;;15.73;9.50;;;13.00;99.90;;;;;;5016253;28;20169;-82
2022/04/29 07:32:25;;;;;;;20.38;9.98;;;12.60;99.90;;;;;;5015666;28;20192;-86
2022/04/29 07:43:10;;;;;;;23.08;9.70;;;12.60;99.90;;;;;;5015658;28;20578;-84
2022/04/29 07:45:38;;;;;;;20.60;9.52;;;12.90;99.90;;;;;;5034069;28;20209;-87
2022/04/29 07:48:05;;;;;;;38.33;10.60;;;12.90;99.90;;;;;;5018622;28;20176;-91
2022/04/29 07:50:31;;;;;;;23.65;9.88;;;12.70;99.90;;;;;;5015794;28;20204;-81
2022/04/29 07:52:59;;;;;;;18.42;9.50;;;12.80;99.90;;;;;;5015728;28;20609;-91
2022/04/29 07:55:24;;;;;;;17.05;9.40;;;12.50;99.90;;;;;;5021502;28;20223;-80
2022/04/29 07:57:51;;;;;;;14.35;9.68;;;12.40;99.90;;;;;;5024051;28;20165;-83
2022/04/29 08:00:17;;;;;;;19.73;9.70;;;12.10;99.90;;;;;;5020578;28;20200;-83
2022/04/29 08:02:43;;;;;;;24.38;10.75;;;11.90;99.90;;;;;;5019149;28;20263;-85
2022/04/29 08:05:09;;;;;;;16.00;9.32;;;12.10;99.90;;;;;;5015390;28;20212;-87
2022/04/29 08:07:35;;;;;;;26.58;10.18;;;12.00;99.90;;;;;;5015542;28;20229;-84
2022/04/29 08:10:01;;;;;;;15.05;10.20;;;12.10;99.90;;;;;;5016360;28;20164;-89
2022/04/29 08:12:27;;;;;;;15.10;9.80;;;12.00;99.90;;;;;;5014815;28;20594;-85
2022/04/29 08:14:53;;;;;;;30.42;10.35;;;11.90;99.90;;;;;;5015625;28;20232;-89
2022/04/29 08:17:20;;;;;;;13.88;9.02;;;11.90;99.90;;;;;;5015364;28;20263;-88
2022/04/29 08:19:46;;;;;;;16.88;10.70;;;12.10;99.90;;;;;;5015031;28;20173;-82
2022/04/29 08:22:11;;;;;;;24.98;10.05;;;12.00;99.90;;;;;;5015067;28;20506;-88
2022/04/29 08:24:37;;;;;;;16.73;10.75;;;11.60;99.90;;;;;;5013752;28;20204;-82
2022/04/29 08:27:03;;;;;;;15.18;10.45;;;11.60;99.90;;;;;;5015310;28;20199;-79
2022/04/29 08:29:29;;;;;;;27.52;11.32;;;12.00;99.90;;;;;;4998292;28;20184;-85
2022/04/29 08:31:55;;;;;;;20.67;10.52;;;12.10;99.90;;;;;;5014432;28;20179;-87
2022/04/29 08:34:20;;;;;;;21.05;12.18;;;11.90;99.90;;;;;;5014740;28;20608;-86
2022/04/29 08:36:46;;;;;;;33.25;13.82;;;12.00;99.90;;;;;;5015195;28;20165;-85
2022/04/29 08:39:12;;;;;;;23.35;14.13;;;12.20;99.90;;;;;;5013914;28;20228;-86
2022/04/29 08:41:39;;;;;;;24.27;15.73;;;12.40;99.90;;;;;;5014022;28;20165;-91
2022/04/29 08:44:08;;;;;;;26.52;15.55;;;12.60;99.90;;;;;;5014972;28;20311;-87
2022/04/29 08:46:34;;;;;;;38.83;20.27;;;12.40;99.90;;;;;;5013888;28;20196;-86
2022/04/29 08:49:02;;;;;;;28.40;18.45;;;12.20;99.90;;;;;;5013594;28;20609;-87
2022/04/29 08:51:29;;;;;;;45.15;20.33;;;11.90;99.90;;;;;;5014313;28;20164;-81
2022/04/29 08:53:57;;;;;;;39.45;20.95;;;11.90;99.90;;;;;;5029765;28;20168;-81
2022/04/29 08:59:08;;;;;;;26.63;16.17;;;12.10;99.90;;;;;;5014387;28;20172;-93
2022/04/29 09:01:38;;;;;;;37.90;15.05;;;12.30;99.90;;;;;;5014910;28;20184;-87
2022/04/29 09:04:04;;;;;;;30.70;13.45;;;12.40;99.90;;;;;;5015975;28;20167;-92
2022/04/29 09:06:30;;;;;;;26.77;13.23;;;12.50;99.90;;;;;;5017211;28;20216;-79
2022/04/29 09:09:08;;;;;;;23.98;13.02;;;12.70;99.90;;;;;;5015204;28;20259;-82
2022/04/29 09:11:34;;;;;;;24.50;12.23;;;12.80;99.90;;;;;;4999004;28;20176;-81
2022/04/29 09:14:19;;;;;;;36.50;11.90;;;13.00;99.90;;;;;;5014023;28;20172;-89
2022/04/29 09:16:45;;;;;;;17.67;11.50;;;13.20;99.90;;;;;;5015044;28;20187;-81
2022/04/29 09:19:31;;;;;;;15.48;12.07;;;13.20;99.90;;;;;;5014885;28;20570;-86
2022/04/29 09:22:08;;;;;;;25.13;12.15;;;13.50;99.90;;;;;;5014273;28;20178;-81
2022/04/29 09:24:35;;;;;;;20.50;10.90;;;13.60;99.90;;;;;;5045892;28;20210;-85
2022/04/29 09:27:03;;;;;;;29.15;11.98;;;13.80;99.90;;;;;;5033692;28;20172;-85
2022/04/29 09:29:34;;;;;;;26.35;11.68;;;13.70;99.90;;;;;;5033439;28;20246;-82
2022/04/29 09:32:01;;;;;;;17.63;11.40;;;13.60;99.90;;;;;;5033942;28;20259;-88
2022/04/29 09:34:47;;;;;;;27.70;11.57;;;13.50;99.90;;;;;;5034159;28;20307;-85
2022/04/29 09:37:17;;;;;;;15.98;10.90;;;13.70;99.90;;;;;;5033510;28;20251;-87
2022/04/29 09:39:53;;;;;;;32.90;11.50;;;13.50;99.90;;;;;;5032891;28;20168;-86
2022/04/29 09:42:19;;;;;;;20.58;10.82;;;13.40;99.90;;;;;;5031187;28;20199;-80
2022/04/29 09:44:45;;;;;;;40.45;12.57;;;13.40;99.90;;;;;;5013723;28;20231;-84
2022/04/29 09:47:19;;;;;;;25.70;11.23;;;13.70;99.90;;;;;;5012672;28;20180;-87
2022/04/29 09:49:59;;;;;;;21.63;11.63;;;13.40;99.90;;;;;;5013635;28;20252;-81
2022/04/29 09:52:31;;;;;;;21.25;10.38;;;13.70;99.90;;;;;;5013450;28;20171;-87
2022/04/29 09:55:18;;;;;;;22.00;11.18;;;13.60;99.90;;;;;;5012985;28;20192;-84
2022/04/29 09:58:00;;;;;;;15.23;9.85;;;13.80;99.90;;;;;;5013449;28;20251;-87
2022/04/29 10:00:26;;;;;;;18.23;11.35;;;13.80;99.90;;;;;;5013649;28;20500;-86
2022/04/29 10:02:52;;;;;;;22.55;10.82;;;13.60;99.90;;;;;;5013236;28;20641;-80
2022/04/29 10:05:18;;;;;;;27.90;12.02;;;13.40;99.90;;;;;;5013997;28;20311;-93
2022/04/29 10:07:44;;;;;;;19.58;11.50;;;13.10;99.90;;;;;;5016620;28;20180;-79
2022/04/29 10:10:10;;;;;;;19.55;10.10;;;13.00;99.90;;;;;;5017077;28;20175;-83
2022/04/29 10:12:37;;;;;;;24.38;12.65;;;13.20;99.90;;;;;;5018365;28;20168;-81
2022/04/29 10:15:15;;;;;;;21.52;11.05;;;13.50;99.90;;;;;;5016762;28;20533;-80
2022/04/29 10:23:15;;;;;;;25.35;11.63;;;14.40;99.90;;;;;;5016787;28;20180;-88
2022/04/29 10:25:53;;;;;;;18.95;10.35;;;14.60;99.90;;;;;;5019197;28;20216;-83
2022/04/29 10:28:23;;;;;;;22.65;11.98;;;14.80;99.90;;;;;;5017987;28;20179;-81
2022/04/29 10:31:00;;;;;;;35.58;12.50;;;14.80;99.90;;;;;;5017926;28;20482;-85
2022/04/29 10:33:26;;;;;;;30.40;11.70;;;15.00;99.90;;;;;;5018724;28;20168;-86
2022/04/29 10:35:53;;;;;;;21.42;11.73;;;15.10;99.90;;;;;;5017673;28;20199;-86
2022/04/29 10:38:32;;;;;;;27.98;12.95;;;15.00;99.90;;;;;;5017528;28;20172;-88
2022/04/29 10:41:06;;;;;;;21.08;11.77;;;15.30;99.90;;;;;;5017456;28;20228;-85
2022/04/29 10:43:52;;;;;;;23.73;11.88;;;15.20;99.90;;;;;;5018516;28;20183;-82
2022/04/29 10:46:37;;;;;;;22.65;12.27;;;15.40;99.90;;;;;;5004948;28;20227;-84
2022/04/29 10:49:25;;;;;;;19.13;11.70;;;15.40;99.90;;;;;;5017129;28;20255;-90
2022/04/29 10:51:55;;;;;;;14.95;12.45;;;15.40;99.90;;;;;;5020205;28;20636;-81
2022/04/29 10:54:42;;;;;;;21.50;12.80;;;15.60;99.90;;;;;;5018487;28;20188;-85
2022/04/29 10:57:12;;;;;;;37.50;12.82;;;15.90;99.90;;;;;;5017849;28;20164;-94
2022/04/29 11:00:00;;;;;;;30.00;12.23;;;15.80;99.90;;;;;;5017872;28;20259;-90
2022/04/29 11:02:31;;;;;;;15.23;11.82;;;16.00;99.90;;;;;;5017710;28;20178;-84
2022/04/29 11:04:59;;;;;;;28.25;11.60;;;16.00;99.90;;;;;;5017606;28;20204;-85
2022/04/29 11:07:35;;;;;;;48.00;11.90;;;16.50;99.90;;;;;;5021475;28;20242;-85
2022/04/29 11:10:03;;;;;;;26.52;12.18;;;16.90;99.90;;;;;;5017143;28;20160;-78
2022/04/29 11:12:37;;;;;;;24.20;12.60;;;16.60;99.90;;;;;;5017289;28;20219;-86
2022/04/29 11:15:09;;;;;;;28.85;14.80;;;16.80;99.90;;;;;;5013594;28;20208;-86
2022/04/29 11:17:36;;;;;;;27.70;12.07;;;17.30;99.90;;;;;;5016338;28;20184;-87
2022/04/29 11:20:16;;;;;;;19.88;12.30;;;17.40;99.90;;;;;;5034162;28;20168;-81
2022/04/29 11:25:51;;;;;;;19.23;11.40;;;17.40;99.90;;;;;;5017932;28;20319;-78
2022/04/29 11:28:17;;;;;;;22.00;10.75;;;17.10;99.90;;;;;;5020248;28;20176;-81
2022/04/29 11:30:44;;;;;;;14.73;11.88;;;16.90;99.90;;;;;;5015231;28;20184;-78
2022/04/29 11:33:09;;;;;;;29.30;12.68;;;16.70;99.90;;;;;;5017261;28;20171;-82
2022/04/29 11:35:35;;;;;;;22.15;13.52;;;16.60;99.90;;;;;;5035198;28;20579;-79
2022/04/29 11:38:01;;;;;;;21.05;12.02;;;16.40;99.90;;;;;;5036203;28;20171;-82
2022/04/29 11:40:27;;;;;;;22.58;12.85;;;16.40;99.90;;;;;;5035641;28;20183;-76
2022/04/29 11:42:53;;;;;;;19.83;12.07;;;16.20;99.90;;;;;;5033450;28;20223;-78
2022/04/29 11:45:22;;;;;;;26.35;12.85;;;16.00;99.90;;;;;;5033225;28;20223;-78
2022/04/29 11:47:48;;;;;;;24.23;12.15;;;16.50;99.90;;;;;;5033188;28;20164;-81
2022/04/29 11:50:14;;;;;;;30.75;12.80;;;16.70;99.90;;;;;;5021284;28;20180;-76
2022/04/29 11:52:40;;;;;;;33.85;13.65;;;17.00;99.90;;;;;;5015027;28;20958;-83
2022/04/29 11:55:07;;;;;;;23.40;13.10;;;17.10;99.90;;;;;;5014249;28;20271;-76
2022/04/29 11:57:44;;;;;;;36.17;13.43;;;16.70;99.90;;;;;;5014126;28;20716;-81
2022/04/29 12:00:24;;;;;;;28.42;13.82;;;16.90;99.90;;;;;;5014771;28;20757;-76
2022/04/29 12:02:50;;;;;;;19.75;13.88;;;17.30;99.90;;;;;;5014764;28;20168;-82
2022/04/29 12:05:16;;;;;;;25.48;13.23;;;17.60;99.90;;;;;;5014774;28;20560;-77
2022/04/29 12:07:44;;;;;;;24.85;13.75;;;17.60;99.90;;;;;;5030100;28;20741;-77
2022/04/29 12:10:17;;;;;;;27.23;12.93;;;17.50;99.90;;;;;;5014477;28;20629;-77
2022/04/29 12:12:44;;;;;;;35.10;14.63;;;17.40;99.90;;;;;;5014824;28;20195;-82
2022/04/29 12:15:10;;;;;;;25.77;13.88;;;17.40;99.90;;;;;;5030314;28;20231;-76
2022/04/29 12:17:40;;;;;;;24.48;14.07;;;17.60;99.90;;;;;;5014022;28;20235;-81
2022/04/29 12:20:09;;;;;;;25.33;14.13;;;17.80;99.90;;;;;;5029904;28;20503;-85
2022/04/29 12:22:38;;;;;;;43.65;13.73;;;17.70;99.90;;;;;;5034256;28;20234;-83
2022/04/29 12:25:28;;;;;;;19.45;13.27;;;17.90;99.90;;;;;;5034584;28;20680;-87
2022/04/29 12:28:12;;;;;;;26.52;13.98;;;17.80;99.90;;;;;;5033355;28;20877;-88
2022/04/29 12:36:14;;;;;;;27.05;13.77;;;17.50;99.90;;;;;;5014847;28;20331;-85
2022/04/29 12:38:41;;;;;;;22.73;13.38;;;17.50;99.90;;;;;;5014831;28;20172;-87
2022/04/29 12:41:34;;;;;;;26.50;13.27;;;17.70;99.90;;;;;;5013708;28;20200;-80
2022/04/29 12:45:04;;;;;;;24.70;13.32;;;17.60;99.90;;;;;;5014719;28;20225;-80
2022/04/29 12:47:19;;;;;;;23.73;13.45;;;17.50;99.90;;;;;;5016447;28;20476;-80
2022/04/29 12:49:45;;;;;;;20.48;13.52;;;17.60;99.90;;;;;;5014576;28;20167;-87
2022/04/29 12:52:12;;;;;;;17.70;13.32;;;17.60;99.90;;;;;;5016360;28;20177;-84
2022/04/29 12:54:38;;;;;;;23.08;14.65;;;17.50;99.90;;;;;;5031874;28;20200;-84
2022/04/29 12:57:05;;;;;;;27.95;13.77;;;17.50;99.90;;;;;;5034164;28;20164;-84
2022/04/29 12:59:36;;;;;;;25.25;13.90;;;17.40;99.90;;;;;;5035464;28;20169;-92
2022/04/29 13:02:05;;;;;;;22.08;11.90;;;17.50;99.90;;;;;;5034472;28;20172;-86
2022/04/29 13:04:32;;;;;;;29.23;14.35;;;17.90;99.90;;;;;;5032525;28;20192;-93
2022/04/29 13:06:59;;;;;;;20.50;14.07;;;18.00;99.90;;;;;;5033490;28;20179;-81
2022/04/29 13:09:25;;;;;;;18.13;13.73;;;17.80;99.90;;;;;;5033847;28;20168;-85